Aérodrome :
LOGIN :

S'inscrire | Disclaimer

   EN    FR    IT 

 










Légende :    VFR   VFR Marginal   IFR   IFR Intensif   IFR Très Intensif
Visi : 
Plafond : 
>= 8 km
>= 3000ft
5 à 8 km
1000 à 3000 ft
1500m à 5 km
500 à 1000 ft
800 à 1500m
200 à 500 ft
< 800m
< 200 ft
Symboles :   Orages  Brouillard  Fortes neiges  Fortes précipitations  Vent > 20 kt
SIGMETs :   Divers  Orages  Givrage  Turbulence  Onde Orograph.  Cendres Volcan.






- Altitude de l'aérodrome : 28 ft
- Code IATA : SOZ


LFKS - Solenzara

DERNIER METAR :
  • 150800Z AUTO VRB02KT CAVOK 21/18 Q1014

METARs EXPIRÉS :
  • 150730Z AUTO 30003KT 270V350 9999 SCT012 BKN200 20/18 Q1014
  • 150700Z AUTO 27004KT 9999 BKN014 OVC200 19/17 Q1014
  • 150630Z AUTO 28006KT 250V310 9999 ////// 18/16 Q1013
  • 150600Z AUTO 28005KT 9999 OVC012/// ///CB 18/16 Q1014
  • 150530Z AUTO 27004KT 240V310 9999 BKN013/// BKN020/// BKN027/// ///CB 18/16 Q1013

TAF AMD TAF LFKS
Valide du 15 à 05h jusqu'au 16 à 03h UTC


150526Z 1505/1603 14005KT 9999 BKN020
TEMPO 1512/1517 18015G25KT 4500 SHRA BKN050TCU
PROB30
TEMPO 1513/1517 2900 TSRA BKN050CB
BECMG 1517/1519 27015G35KT



MET'MAP, la Météo Aéronautique d'un coup d'oeil ! - Copyright ORBIFLY Décembre 2007 - Disclaimer

ORBIFLY MET'MAP TEAM :

Programmation & Développement : Alexandra Zaïnal
Conception & Développement : Baudouin d'Aumeries
Co-Programmation & Développement : Marc-Olivier Méhu
Soutien technique & logistique : Manuel Goepfert

Contact : metmap@orbifly.com




SOURCES & CREDITS :

   NOAA